Time;durP1;ratioP1;P1;durP2;ratioP2;P2;SDS_P1;SDS_P2;PMS_P1;PMS_P2;Temp;Humidity;BMP_temperature;BMP_pressure;BME280_temperature;BME280_humidity;BME280_pressure;Samples;Min_cycle;Max_cycle;Signal;HPM_P1;HPM_P2
2022/11/15 00:00:50;;;;;;;52.63;17.25;;;2.80;99.90;;;;;;5056433;28;20029;-74
2022/11/15 00:03:17;;;;;;;83.47;19.60;;;2.80;99.90;;;;;;5056428;28;20028;-73
2022/11/15 00:05:43;;;;;;;36.05;15.70;;;2.80;99.90;;;;;;5056334;28;20029;-73
2022/11/15 00:08:09;;;;;;;74.97;19.90;;;2.80;99.90;;;;;;5056363;28;20032;-74
2022/11/15 00:10:35;;;;;;;46.85;15.02;;;2.80;99.90;;;;;;5056073;28;20110;-67
2022/11/15 00:13:05;;;;;;;49.85;15.05;;;2.70;99.90;;;;;;5056024;28;20064;-68
2022/11/15 00:15:30;;;;;;;41.83;15.82;;;2.60;99.90;;;;;;5056043;28;20066;-73
2022/11/15 00:17:56;;;;;;;47.95;16.20;;;2.60;99.90;;;;;;5056288;28;20024;-74
2022/11/15 00:20:21;;;;;;;45.05;14.75;;;2.50;99.90;;;;;;5054652;28;20020;-73
2022/11/15 00:22:47;;;;;;;40.13;15.93;;;2.50;99.90;;;;;;5056162;28;20023;-74
2022/11/15 00:25:12;;;;;;;37.53;13.93;;;2.40;99.90;;;;;;5055803;28;20072;-67
2022/11/15 00:27:38;;;;;;;38.75;14.55;;;2.30;99.90;;;;;;5056084;28;20021;-73
2022/11/15 00:30:04;;;;;;;32.88;11.77;;;2.20;99.90;;;;;;5055777;28;20376;-73
2022/11/15 00:32:32;;;;;;;27.35;12.55;;;2.20;99.90;;;;;;5055707;28;20112;-73
2022/11/15 00:34:58;;;;;;;39.03;14.68;;;2.00;99.90;;;;;;5055705;28;20021;-67
2022/11/15 00:37:24;;;;;;;42.22;14.93;;;2.00;99.90;;;;;;5055795;28;20064;-73
2022/11/15 00:39:49;;;;;;;52.78;16.83;;;2.00;99.90;;;;;;5054389;28;20017;-67
2022/11/15 00:42:15;;;;;;;43.17;15.98;;;1.90;99.90;;;;;;5054485;28;20094;-73
2022/11/15 00:44:40;;;;;;;49.15;15.38;;;1.90;99.90;;;;;;5054561;28;20078;-73
2022/11/15 00:47:06;;;;;;;56.33;16.33;;;1.90;99.90;;;;;;5055592;28;20529;-73
2022/11/15 00:49:31;;;;;;;42.10;17.83;;;1.80;99.90;;;;;;5055366;28;20551;-73
2022/11/15 00:51:57;;;;;;;39.00;16.27;;;1.80;99.90;;;;;;5055605;28;20355;-67
2022/11/15 00:54:22;;;;;;;37.42;15.80;;;1.80;99.90;;;;;;5054111;28;20402;-73
2022/11/15 00:56:48;;;;;;;57.85;17.98;;;1.80;99.90;;;;;;5054105;28;20478;-68
2022/11/15 00:59:13;;;;;;;34.55;15.32;;;1.70;99.90;;;;;;5055396;28;20138;-74
2022/11/15 01:01:39;;;;;;;41.92;15.98;;;1.70;99.90;;;;;;5055142;28;20020;-69
2022/11/15 01:04:05;;;;;;;38.35;16.15;;;1.70;99.90;;;;;;5053867;28;20041;-68
2022/11/15 01:06:30;;;;;;;27.90;13.82;;;1.60;99.90;;;;;;5055162;28;20021;-67
2022/11/15 01:08:56;;;;;;;26.02;13.07;;;1.70;99.90;;;;;;5053380;28;20025;-68
2022/11/15 01:11:21;;;;;;;34.38;14.40;;;1.60;99.90;;;;;;5053746;28;20032;-69
2022/11/15 01:13:47;;;;;;;31.58;14.98;;;1.60;99.90;;;;;;5055245;28;20441;-73
2022/11/15 01:16:16;;;;;;;27.27;13.88;;;1.60;99.90;;;;;;5054824;28;20043;-67
2022/11/15 01:18:42;;;;;;;32.47;13.65;;;1.60;99.90;;;;;;5053823;28;20025;-73
2022/11/15 01:21:12;;;;;;;30.20;13.93;;;1.60;99.90;;;;;;5054910;28;20106;-73
2022/11/15 01:23:39;;;;;;;28.73;13.23;;;1.60;99.90;;;;;;5054938;28;20109;-67
2022/11/15 01:26:07;;;;;;;40.22;14.27;;;1.50;99.90;;;;;;5054777;28;20051;-73
2022/11/15 01:28:34;;;;;;;31.63;14.48;;;1.50;99.90;;;;;;5054742;28;20467;-73
2022/11/15 01:31:02;;;;;;;23.63;12.65;;;1.50;99.90;;;;;;5054701;28;20024;-73
2022/11/15 01:33:28;;;;;;;26.08;12.68;;;1.50;99.90;;;;;;5053407;28;20425;-68
2022/11/15 01:35:54;;;;;;;25.67;13.77;;;1.50;99.90;;;;;;5054699;28;20025;-73
2022/11/15 01:38:20;;;;;;;37.75;14.75;;;1.50;99.90;;;;;;5054624;28;20376;-73
2022/11/15 01:40:45;;;;;;;46.72;13.65;;;1.50;99.90;;;;;;5054463;28;20039;-67
2022/11/15 01:43:21;;;;;;;47.28;12.60;;;1.40;99.90;;;;;;5054366;28;20049;-67
2022/11/15 01:45:52;;;;;;;24.83;12.23;;;1.40;99.90;;;;;;5054368;28;20029;-67
2022/11/15 01:48:18;;;;;;;30.05;12.65;;;1.30;99.90;;;;;;5054503;28;20025;-73
2022/11/15 01:50:44;;;;;;;34.20;14.85;;;1.10;99.90;;;;;;5054359;28;20039;-67
2022/11/15 01:53:10;;;;;;;27.90;13.50;;;1.10;99.90;;;;;;5054516;28;20021;-73
2022/11/15 01:55:37;;;;;;;25.15;12.63;;;1.20;99.90;;;;;;5054128;28;20029;-67
2022/11/15 01:58:05;;;;;;;20.48;11.63;;;1.10;99.90;;;;;;5054266;28;20370;-73
2022/11/15 02:00:31;;;;;;;34.53;11.27;;;1.20;99.90;;;;;;5054080;28;20466;-67
2022/11/15 02:02:57;;;;;;;45.47;12.13;;;1.20;99.90;;;;;;5054215;28;20443;-67
2022/11/15 02:05:22;;;;;;;29.88;11.35;;;1.20;99.90;;;;;;5054014;28;20112;-67
2022/11/15 02:07:49;;;;;;;40.03;12.88;;;1.20;99.90;;;;;;5054107;28;20540;-67
2022/11/15 02:10:19;;;;;;;25.10;11.85;;;1.10;99.90;;;;;;5053932;28;20032;-67
2022/11/15 02:12:46;;;;;;;30.00;13.63;;;1.00;99.90;;;;;;5052602;28;20078;-73
2022/11/15 02:15:12;;;;;;;26.98;13.65;;;1.00;99.90;;;;;;5053799;28;20105;-67
2022/11/15 02:17:38;;;;;;;24.55;12.15;;;1.00;99.90;;;;;;5052545;28;20021;-73
2022/11/15 02:20:32;;;;;;;30.80;12.95;;;1.00;99.90;;;;;;5052447;28;20482;-67
2022/11/15 02:23:27;;;;;;;27.73;13.20;;;1.00;99.90;;;;;;5053637;28;20084;-67
2022/11/15 02:26:17;;;;;;;27.83;12.52;;;1.00;99.90;;;;;;5050672;28;20041;-67
2022/11/15 02:29:15;;;;;;;19.73;11.95;;;1.00;99.90;;;;;;5053869;28;20033;-73
2022/11/15 02:32:05;;;;;;;17.75;9.32;;;1.00;99.90;;;;;;5045929;28;20437;-67
2022/11/15 02:34:54;;;;;;;18.63;10.35;;;1.00;99.90;;;;;;5052349;28;20383;-73
2022/11/15 02:37:44;;;;;;;21.45;9.38;;;0.90;99.90;;;;;;5053666;28;20059;-73
2022/11/15 02:40:43;;;;;;;19.10;10.13;;;0.90;99.90;;;;;;5053743;28;20382;-67
2022/11/15 02:46:08;;;;;;;16.73;9.32;;;0.80;99.90;;;;;;5053476;28;20111;-67
2022/11/15 02:48:34;;;;;;;18.45;11.18;;;0.80;99.90;;;;;;5052290;28;20021;-73
2022/11/15 02:51:01;;;;;;;16.85;10.02;;;0.80;99.90;;;;;;5053530;28;20029;-67
2022/11/15 02:53:27;;;;;;;19.02;11.00;;;0.80;99.90;;;;;;5053353;28;20052;-73
2022/11/15 02:55:54;;;;;;;20.42;11.25;;;0.80;99.90;;;;;;5053294;28;20029;-67
2022/11/15 02:58:52;;;;;;;20.23;11.68;;;0.80;99.90;;;;;;5053226;28;20049;-67
2022/11/15 03:01:30;;;;;;;17.33;10.18;;;0.80;99.90;;;;;;5051084;28;20055;-73
2022/11/15 03:03:55;;;;;;;20.77;12.25;;;0.70;99.90;;;;;;5053268;28;20087;-73
2022/11/15 03:06:42;;;;;;;20.40;10.93;;;0.70;99.90;;;;;;5053146;28;20421;-67
2022/11/15 03:09:21;;;;;;;17.58;10.88;;;0.70;99.90;;;;;;5053187;28;20102;-67
2022/11/15 03:11:53;;;;;;;20.63;10.88;;;0.70;99.90;;;;;;5053162;28;20025;-73
2022/11/15 03:14:23;;;;;;;19.92;10.77;;;0.70;99.90;;;;;;5053050;28;20467;-67
2022/11/15 03:17:12;;;;;;;21.15;11.05;;;0.60;99.90;;;;;;5053000;28;20061;-68
2022/11/15 03:19:47;;;;;;;15.15;10.93;;;0.60;99.90;;;;;;5053084;28;20018;-73
2022/11/15 03:22:19;;;;;;;18.83;11.27;;;0.60;99.90;;;;;;5053113;28;20494;-73
2022/11/15 03:24:49;;;;;;;17.33;11.57;;;0.60;99.90;;;;;;5052997;28;20033;-73
2022/11/15 03:27:20;;;;;;;18.50;11.43;;;0.60;99.90;;;;;;5051626;28;20839;-73
2022/11/15 03:29:55;;;;;;;21.05;12.30;;;0.60;99.90;;;;;;5051724;28;20021;-73
2022/11/15 03:32:26;;;;;;;22.90;13.02;;;0.50;99.90;;;;;;5053915;28;20147;-67
2022/11/15 03:35:05;;;;;;;21.92;12.40;;;0.60;99.90;;;;;;5055813;28;20056;-67
2022/11/15 03:37:53;;;;;;;19.60;11.18;;;0.50;99.90;;;;;;5055993;28;20080;-72
2022/11/15 03:40:39;;;;;;;20.00;11.63;;;0.60;99.90;;;;;;5056798;28;20025;-67
2022/11/15 03:43:21;;;;;;;18.02;10.52;;;0.50;99.90;;;;;;5056785;28;20060;-67
2022/11/15 03:45:55;;;;;;;20.65;11.57;;;0.50;99.90;;;;;;5056850;28;20036;-73
2022/11/15 03:48:24;;;;;;;16.33;10.35;;;0.50;99.90;;;;;;5056732;28;20025;-66
2022/11/15 03:50:50;;;;;;;19.45;11.23;;;0.50;99.90;;;;;;5056767;28;20021;-68
2022/11/15 03:53:17;;;;;;;18.88;11.90;;;0.40;99.90;;;;;;5055254;28;20079;-72
2022/11/15 03:55:42;;;;;;;18.05;11.38;;;0.40;99.90;;;;;;5056525;28;20032;-73
2022/11/15 03:58:08;;;;;;;21.48;12.13;;;0.30;99.90;;;;;;5056480;28;20025;-73
2022/11/15 04:00:33;;;;;;;24.67;13.77;;;0.30;99.90;;;;;;5056529;28;20029;-66
2022/11/15 04:02:59;;;;;;;20.85;12.75;;;0.30;99.90;;;;;;5056406;28;20044;-73
2022/11/15 04:05:24;;;;;;;25.08;13.85;;;0.30;99.90;;;;;;5056266;28;20033;-73
2022/11/15 04:07:50;;;;;;;28.10;15.07;;;0.30;99.90;;;;;;5056291;28;20466;-73
2022/11/15 04:10:16;;;;;;;28.00;13.93;;;0.20;99.90;;;;;;5056193;28;20032;-73
2022/11/15 04:12:46;;;;;;;32.70;17.77;;;0.20;99.90;;;;;;5056214;28;20059;-73
2022/11/15 04:15:19;;;;;;;27.05;17.92;;;0.20;99.90;;;;;;5056138;28;20112;-66
2022/11/15 04:17:56;;;;;;;31.20;17.75;;;0.20;99.90;;;;;;5056243;28;20028;-67
2022/11/15 04:26:07;;;;;;;29.88;15.45;;;0.20;99.90;;;;;;5056295;28;20449;-73
2022/11/15 04:28:33;;;;;;;27.98;15.65;;;0.20;99.90;;;;;;5055869;28;20021;-73
2022/11/15 04:30:58;;;;;;;28.30;15.85;;;0.20;99.90;;;;;;5055960;28;20021;-67
2022/11/15 04:33:24;;;;;;;27.25;15.77;;;0.20;99.90;;;;;;5055855;28;20021;-73
2022/11/15 04:38:35;;;;;;;28.20;16.80;;;0.20;99.90;;;;;;5056073;28;20453;-66
2022/11/15 04:41:01;;;;;;;25.52;14.48;;;0.30;99.90;;;;;;5055838;28;20553;-73
2022/11/15 04:43:28;;;;;;;26.65;14.70;;;0.30;99.90;;;;;;5055222;28;20110;-72
2022/11/15 04:45:53;;;;;;;24.85;14.07;;;0.30;99.90;;;;;;5054996;28;20025;-72
2022/11/15 04:48:19;;;;;;;32.08;19.38;;;0.30;99.90;;;;;;5055612;28;20044;-67
2022/11/15 04:50:47;;;;;;;32.97;23.40;;;0.30;99.90;;;;;;5054369;28;20025;-72
2022/11/15 04:53:12;;;;;;;32.17;21.27;;;0.20;99.90;;;;;;5054183;28;20024;-72
2022/11/15 04:55:38;;;;;;;38.45;19.95;;;0.30;99.90;;;;;;5055421;28;20017;-72
2022/11/15 04:58:03;;;;;;;28.38;16.85;;;0.30;99.90;;;;;;5054117;28;20078;-68
2022/11/15 05:00:29;;;;;;;24.70;15.02;;;0.30;99.90;;;;;;5055568;28;20029;-72
2022/11/15 05:05:41;;;;;;;27.05;14.52;;;0.30;99.90;;;;;;5055680;28;20040;-73
2022/11/15 05:08:07;;;;;;;23.95;14.07;;;0.20;99.90;;;;;;5055179;28;20470;-68
2022/11/15 05:10:33;;;;;;;24.02;14.18;;;0.20;99.90;;;;;;5055092;28;20025;-67
2022/11/15 05:12:58;;;;;;;26.05;13.95;;;0.20;99.90;;;;;;5055243;28;20025;-74
2022/11/15 05:15:24;;;;;;;21.63;13.52;;;0.20;99.90;;;;;;5054936;28;20044;-67
2022/11/15 05:17:49;;;;;;;27.55;15.98;;;0.20;99.90;;;;;;5055171;28;20023;-72
2022/11/15 05:20:15;;;;;;;28.55;15.63;;;0.20;99.90;;;;;;5054833;28;20471;-67
2022/11/15 05:22:41;;;;;;;32.72;17.50;;;0.10;99.90;;;;;;5055039;28;20487;-67
2022/11/15 05:25:07;;;;;;;40.25;18.15;;;0.10;99.90;;;;;;5054658;28;20111;-67
2022/11/15 05:27:33;;;;;;;32.25;17.05;;;0.10;99.90;;;;;;5054820;28;20029;-72
2022/11/15 05:29:59;;;;;;;37.05;19.50;;;0.10;99.90;;;;;;5053421;28;20071;-67
2022/11/15 05:32:25;;;;;;;42.90;21.42;;;0.10;99.90;;;;;;5053533;28;20021;-68
2022/11/15 05:34:51;;;;;;;53.88;25.02;;;0.10;99.90;;;;;;5053325;28;20025;-66
2022/11/15 05:37:17;;;;;;;69.70;32.35;;;0.10;99.90;;;;;;5054633;28;20071;-73
2022/11/15 05:39:43;;;;;;;63.58;29.63;;;0.10;99.90;;;;;;5054601;28;20036;-72
2022/11/15 05:42:12;;;;;;;47.28;21.83;;;0.10;99.90;;;;;;5054388;28;20049;-73
2022/11/15 05:44:41;;;;;;;33.78;17.73;;;0.10;99.90;;;;;;5053038;28;20424;-72
2022/11/15 05:47:10;;;;;;;29.35;15.95;;;0.00;99.90;;;;;;5054501;28;20067;-73
2022/11/15 05:49:38;;;;;;;37.00;16.63;;;0.00;99.90;;;;;;5054323;28;20032;-66
2022/11/15 05:52:06;;;;;;;36.10;18.35;;;0.10;99.90;;;;;;5054322;28;20100;-66
2022/11/15 05:54:33;;;;;;;51.35;25.60;;;0.00;99.90;;;;;;5054146;28;20410;-72
2022/11/15 05:56:59;;;;;;;91.55;37.95;;;0.00;99.90;;;;;;5054292;28;20071;-72
2022/11/15 05:59:27;;;;;;;104.95;44.70;;;0.00;99.90;;;;;;5054072;28;20474;-72
2022/11/15 06:01:53;;;;;;;79.22;37.15;;;0.00;99.90;;;;;;5054230;28;20023;-72
2022/11/15 06:04:18;;;;;;;85.18;38.47;;;0.00;99.90;;;;;;5053989;28;20033;-73
2022/11/15 06:06:44;;;;;;;41.80;22.48;;;0.00;99.90;;;;;;5054143;28;20028;-72
2022/11/15 06:09:09;;;;;;;34.33;16.48;;;0.00;99.90;;;;;;5053881;28;20021;-67
2022/11/15 06:11:35;;;;;;;31.48;16.27;;;0.00;99.90;;;;;;5054163;28;20021;-72
2022/11/15 06:14:01;;;;;;;26.33;15.00;;;0.00;99.90;;;;;;5053928;28;20033;-73
2022/11/15 06:16:26;;;;;;;27.38;16.05;;;0.10;99.90;;;;;;5053742;28;20086;-73
2022/11/15 06:18:52;;;;;;;44.20;21.48;;;0.10;99.90;;;;;;5053825;28;20029;-67
2022/11/15 06:21:17;;;;;;;60.55;24.55;;;0.10;99.90;;;;;;5052445;28;20112;-68
2022/11/15 06:23:43;;;;;;;47.35;22.17;;;0.10;99.90;;;;;;5053797;28;20044;-68
2022/11/15 06:26:08;;;;;;;59.55;26.83;;;0.20;99.90;;;;;;5053668;28;20021;-72
2022/11/15 06:28:34;;;;;;;45.30;22.33;;;0.10;99.90;;;;;;5053785;28;20018;-67
2022/11/15 06:31:08;;;;;;;42.13;18.75;;;0.20;99.90;;;;;;5053538;28;20033;-66
2022/11/15 06:33:34;;;;;;;47.47;21.67;;;0.20;99.90;;;;;;5053899;28;20032;-72
2022/11/15 06:36:04;;;;;;;51.33;24.00;;;0.30;99.90;;;;;;5052319;28;20033;-67
2022/11/15 06:38:30;;;;;;;52.30;24.38;;;0.30;99.90;;;;;;5053639;28;20389;-67
2022/11/15 06:41:05;;;;;;;64.72;30.15;;;0.30;99.90;;;;;;5053582;28;20095;-67
2022/11/15 06:43:31;;;;;;;102.00;41.42;;;0.30;99.90;;;;;;5053646;28;20064;-73
2022/11/15 06:45:59;;;;;;;96.90;42.78;;;0.40;99.90;;;;;;5053447;28;20029;-72
2022/11/15 06:48:24;;;;;;;71.68;33.65;;;0.40;99.90;;;;;;5053428;28;20462;-66
2022/11/15 06:50:54;;;;;;;80.40;33.40;;;0.50;99.90;;;;;;5052096;28;20078;-72
2022/11/15 06:53:20;;;;;;;79.68;35.30;;;0.60;99.90;;;;;;5053445;28;20078;-72
2022/11/15 06:55:46;;;;;;;71.15;33.85;;;0.60;99.90;;;;;;5053191;28;20100;-67
2022/11/15 06:58:12;;;;;;;76.78;31.55;;;0.60;99.90;;;;;;5053270;28;20032;-67
2022/11/15 07:00:37;;;;;;;69.95;32.97;;;0.60;99.90;;;;;;5053202;28;20387;-72
2022/11/15 07:03:03;;;;;;;75.45;32.83;;;0.70;99.90;;;;;;5053403;28;20033;-72
2022/11/15 07:05:29;;;;;;;71.20;32.75;;;0.80;99.90;;;;;;5053117;28;20029;-72
2022/11/15 07:07:56;;;;;;;59.30;26.20;;;0.90;99.90;;;;;;5046000;28;20173;-67
2022/11/15 07:10:24;;;;;;;88.65;42.22;;;0.90;99.90;;;;;;5050258;28;20028;-68
2022/11/15 07:12:54;;;;;;;93.40;40.67;;;1.00;99.90;;;;;;5068435;28;20087;-67
2022/11/15 07:15:21;;;;;;;93.30;41.10;;;1.20;99.90;;;;;;5070530;28;20381;-67
2022/11/15 07:17:47;;;;;;;86.95;39.50;;;1.30;99.90;;;;;;5064881;28;20036;-72
2022/11/15 07:20:13;;;;;;;86.43;39.95;;;1.40;99.90;;;;;;5071091;28;20650;-71
2022/11/15 07:22:42;;;;;;;71.13;32.97;;;1.40;99.90;;;;;;5071507;28;20059;-72
2022/11/15 07:25:08;;;;;;;76.40;36.08;;;1.60;99.90;;;;;;5067694;28;20036;-72
2022/11/15 07:27:34;;;;;;;68.28;34.75;;;1.70;99.90;;;;;;5060741;28;20037;-72
2022/11/15 07:30:00;;;;;;;77.60;34.80;;;1.80;99.90;;;;;;5054591;28;20020;-72
2022/11/15 07:32:26;;;;;;;75.47;36.05;;;1.90;99.90;;;;;;5071335;28;20391;-68
2022/11/15 07:34:51;;;;;;;72.68;34.85;;;2.00;99.90;;;;;;5072026;28;20473;-72
2022/11/15 07:37:17;;;;;;;75.18;34.58;;;2.20;99.90;;;;;;5071303;28;20041;-73
2022/11/15 07:39:43;;;;;;;67.53;34.90;;;2.30;99.90;;;;;;5071940;28;20410;-72
2022/11/15 07:44:53;;;;;;;86.95;42.63;;;2.50;99.90;;;;;;5071009;28;20101;-72
2022/11/15 07:47:20;;;;;;;97.30;46.55;;;2.60;99.90;;;;;;5065454;28;20048;-72
2022/11/15 07:49:46;;;;;;;98.60;51.95;;;2.80;99.90;;;;;;5054178;28;20043;-72
2022/11/15 07:52:12;;;;;;;87.38;43.58;;;2.90;99.90;;;;;;5048209;28;20018;-72
2022/11/15 07:54:38;;;;;;;88.05;42.20;;;3.00;99.90;;;;;;5054136;28;20028;-72
2022/11/15 07:57:04;;;;;;;74.85;36.72;;;3.20;99.90;;;;;;5071138;28;20033;-72
2022/11/15 07:59:30;;;;;;;56.28;31.02;;;3.40;99.90;;;;;;5046292;28;20025;-67
2022/11/15 08:01:56;;;;;;;59.00;30.67;;;3.50;99.90;;;;;;5040065;28;20025;-71
2022/11/15 08:04:21;;;;;;;56.92;29.38;;;3.70;99.90;;;;;;5047491;28;20045;-67
2022/11/15 08:06:47;;;;;;;54.08;30.20;;;3.80;99.90;;;;;;5040578;28;20071;-71
2022/11/15 08:09:12;;;;;;;52.40;29.10;;;4.00;99.90;;;;;;5046952;28;20041;-69
2022/11/15 08:11:38;;;;;;;49.60;28.92;;;4.20;99.90;;;;;;5044606;28;20024;-68
2022/11/15 08:14:04;;;;;;;49.47;29.70;;;4.30;99.90;;;;;;5046431;28;20084;-70
2022/11/15 08:16:29;;;;;;;51.65;29.25;;;4.50;99.90;;;;;;5042144;28;20043;-71
2022/11/15 08:18:55;;;;;;;51.33;30.63;;;4.70;99.90;;;;;;5044773;28;20033;-67
2022/11/15 08:21:21;;;;;;;56.47;29.52;;;4.80;99.90;;;;;;5047969;28;20021;-67
2022/11/15 08:23:47;;;;;;;49.42;30.15;;;5.00;99.90;;;;;;5046315;28;20482;-69
2022/11/15 08:26:13;;;;;;;80.57;36.35;;;5.20;99.90;;;;;;5050039;28;20032;-67
2022/11/15 08:28:38;;;;;;;57.95;32.63;;;5.30;99.90;;;;;;5047193;28;20405;-71
2022/11/15 08:31:04;;;;;;;51.40;30.13;;;5.50;99.90;;;;;;5065879;28;20021;-67
2022/11/15 08:33:32;;;;;;;58.63;31.63;;;5.60;99.90;;;;;;5068319;28;20090;-71
2022/11/15 08:35:59;;;;;;;55.92;31.15;;;5.80;99.90;;;;;;5055783;28;20474;-71
2022/11/15 08:38:25;;;;;;;57.33;34.10;;;5.90;99.90;;;;;;5055539;28;20040;-68
2022/11/15 08:41:01;;;;;;;64.35;35.85;;;6.10;99.90;;;;;;5055667;28;20076;-71
2022/11/15 08:43:26;;;;;;;51.30;27.92;;;6.30;99.90;;;;;;5054382;28;20095;-71
2022/11/15 08:45:56;;;;;;;45.22;24.00;;;6.30;99.90;;;;;;5055525;28;20037;-72
2022/11/15 08:48:21;;;;;;;40.10;24.85;;;6.50;99.90;;;;;;5055567;28;20020;-68
2022/11/15 08:50:47;;;;;;;41.17;23.10;;;6.60;99.90;;;;;;5055524;28;20367;-72
2022/11/15 08:53:13;;;;;;;45.05;23.15;;;6.80;99.90;;;;;;5054211;28;20025;-71
2022/11/15 08:55:39;;;;;;;43.95;24.90;;;6.90;99.90;;;;;;5055235;28;20021;-72
2022/11/15 08:58:05;;;;;;;31.63;15.90;;;7.00;99.90;;;;;;5055210;28;20032;-72
2022/11/15 09:00:31;;;;;;;34.00;17.95;;;7.10;99.90;;;;;;5055252;28;20025;-67
2022/11/15 09:02:56;;;;;;;28.15;16.23;;;7.20;99.90;;;;;;5055288;28;20025;-69
2022/11/15 09:05:22;;;;;;;27.23;15.73;;;7.30;99.90;;;;;;5055086;28;20083;-72
2022/11/15 09:07:52;;;;;;;21.02;13.55;;;7.40;99.90;;;;;;5053699;28;20025;-72
2022/11/15 09:10:17;;;;;;;25.13;14.57;;;7.50;99.90;;;;;;5054939;28;20032;-68
2022/11/15 09:12:43;;;;;;;24.13;14.75;;;7.60;99.90;;;;;;5055046;28;20032;-67
2022/11/15 09:15:09;;;;;;;22.17;13.98;;;7.70;99.90;;;;;;5069083;28;20029;-67
2022/11/15 09:17:34;;;;;;;18.25;12.23;;;7.80;99.90;;;;;;5054928;28;20028;-69
2022/11/15 09:20:00;;;;;;;23.92;14.27;;;7.80;99.90;;;;;;5054962;28;20435;-68
2022/11/15 09:22:26;;;;;;;18.60;12.68;;;7.90;99.90;;;;;;5054859;28;20026;-68
2022/11/15 09:24:51;;;;;;;23.50;14.00;;;8.00;99.90;;;;;;5054669;28;20040;-67
2022/11/15 09:27:17;;;;;;;28.00;17.13;;;8.00;99.90;;;;;;5054774;28;20029;-72
2022/11/15 09:29:42;;;;;;;26.75;14.65;;;8.10;99.90;;;;;;5054319;28;20151;-68
2022/11/15 09:32:08;;;;;;;21.63;14.48;;;8.10;99.90;;;;;;5054658;28;20495;-72
2022/11/15 09:34:34;;;;;;;22.13;13.98;;;8.20;99.90;;;;;;5053285;28;20032;-71
2022/11/15 09:36:59;;;;;;;21.30;14.95;;;8.20;99.90;;;;;;5054621;28;20025;-69
2022/11/15 09:39:25;;;;;;;25.70;16.08;;;8.20;99.90;;;;;;5054436;28;20035;-68
2022/11/15 09:42:21;;;;;;;23.88;15.40;;;8.30;99.90;;;;;;5054318;28;20049;-72
2022/11/15 09:45:25;;;;;;;30.85;18.02;;;8.40;99.90;;;;;;5054592;28;20095;-71
2022/11/15 09:48:20;;;;;;;22.65;14.85;;;8.50;99.90;;;;;;5052714;28;20035;-72
2022/11/15 09:50:49;;;;;;;34.95;20.20;;;8.50;99.90;;;;;;5034336;28;20450;-68
2022/11/15 09:53:46;;;;;;;39.40;21.63;;;8.60;99.90;;;;;;5034346;28;20028;-71
2022/11/15 09:56:22;;;;;;;35.03;21.17;;;8.60;99.90;;;;;;5034054;28;20436;-72
2022/11/15 09:59:18;;;;;;;32.17;18.67;;;8.60;99.90;;;;;;5038496;28;20074;-68
2022/11/15 10:01:54;;;;;;;30.75;18.50;;;8.60;99.90;;;;;;5054152;28;20114;-67
2022/11/15 10:04:22;;;;;;;30.58;18.90;;;8.70;99.90;;;;;;5052778;28;20033;-68
2022/11/15 10:07:01;;;;;;;31.05;18.33;;;8.70;99.90;;;;;;5052857;28;20021;-73
2022/11/15 10:09:33;;;;;;;30.48;17.60;;;8.70;99.90;;;;;;5053936;28;20024;-68
2022/11/15 10:11:59;;;;;;;30.10;19.23;;;8.80;99.90;;;;;;5054156;28;20025;-68
2022/11/15 10:14:28;;;;;;;33.40;19.10;;;8.80;99.90;;;;;;5053847;28;20047;-68
2022/11/15 10:16:56;;;;;;;23.50;15.63;;;8.80;99.90;;;;;;5053945;28;20571;-73
2022/11/15 10:19:41;;;;;;;25.10;16.58;;;8.90;99.90;;;;;;5052705;28;20029;-68
2022/11/15 10:22:09;;;;;;;25.77;15.27;;;8.90;99.90;;;;;;5052631;28;20032;-72
2022/11/15 10:24:40;;;;;;;25.92;16.17;;;9.00;99.90;;;;;;5052393;28;20047;-68
2022/11/15 10:27:15;;;;;;;27.52;16.95;;;9.00;99.90;;;;;;5053817;28;20463;-72
2022/11/15 10:29:59;;;;;;;24.83;15.23;;;9.10;99.90;;;;;;5053692;28;20106;-68
2022/11/15 10:32:25;;;;;;;28.25;16.45;;;9.20;99.90;;;;;;5053874;28;20382;-73
2022/11/15 10:34:51;;;;;;;24.77;15.57;;;9.30;99.90;;;;;;5053588;28;20029;-68
2022/11/15 10:37:28;;;;;;;24.50;15.88;;;9.30;99.90;;;;;;5052401;28;20021;-69
2022/11/15 10:40:16;;;;;;;23.17;14.35;;;9.40;99.90;;;;;;5053655;28;20062;-72
2022/11/15 10:42:42;;;;;;;20.58;13.02;;;9.50;99.90;;;;;;5063768;28;20059;-68
2022/11/15 10:45:25;;;;;;;23.02;14.13;;;9.50;99.90;;;;;;5073413;28;20040;-72
2022/11/15 10:47:50;;;;;;;19.23;13.45;;;9.60;99.90;;;;;;5055554;28;20028;-72
2022/11/15 10:50:31;;;;;;;23.58;14.27;;;9.70;99.90;;;;;;5052108;28;20406;-72
2022/11/15 10:53:00;;;;;;;23.80;15.10;;;9.80;99.90;;;;;;5053528;28;20024;-73
2022/11/15 10:55:29;;;;;;;21.45;14.55;;;9.90;99.90;;;;;;5053272;28;20029;-72
2022/11/15 10:58:06;;;;;;;19.70;13.40;;;10.00;99.90;;;;;;5053399;28;20036;-68
2022/11/15 11:00:39;;;;;;;20.45;13.60;;;10.10;99.90;;;;;;5053318;28;20067;-72
2022/11/15 11:03:07;;;;;;;;;;;10.20;99.90;;;;;;5053760;28;20030;-72
2022/11/15 11:05:38;;;;;;;20.80;14.27;;;10.20;99.90;;;;;;5051900;28;19966;-72
2022/11/15 11:08:11;;;;;;;25.92;13.48;;;10.20;99.90;;;;;;5053304;28;20098;-72
2022/11/15 11:10:38;;;;;;;20.42;12.95;;;10.20;99.90;;;;;;5051896;28;20034;-72
2022/11/15 11:13:24;;;;;;;20.13;13.45;;;10.30;99.90;;;;;;5053205;28;20032;-72
2022/11/15 11:16:07;;;;;;;21.60;13.50;;;10.30;99.90;;;;;;5053195;28;20079;-68
2022/11/15 11:18:48;;;;;;;20.40;13.52;;;10.40;99.90;;;;;;5051944;28;20035;-68
2022/11/15 11:21:21;;;;;;;21.33;13.35;;;10.40;99.90;;;;;;5053189;28;20025;-72
2022/11/15 11:24:11;;;;;;;21.52;12.95;;;10.50;99.90;;;;;;5052911;28;20374;-72
2022/11/15 11:26:54;;;;;;;21.60;13.75;;;10.60;99.90;;;;;;5053058;28;20025;-68
2022/11/15 11:29:29;;;;;;;;;;;10.70;99.90;;;;;;5053389;28;20021;-72
2022/11/15 11:32:16;;;;;;;24.05;12.60;;;10.70;99.90;;;;;;5051713;28;19909;-72
2022/11/15 11:34:52;;;;;;;17.10;11.18;;;10.80;99.90;;;;;;5052899;28;20462;-72
2022/11/15 11:37:30;;;;;;;20.17;12.55;;;10.80;99.90;;;;;;5051681;28;20021;-69
2022/11/15 11:40:05;;;;;;;21.52;14.18;;;10.90;99.90;;;;;;5051475;28;20017;-68
2022/11/15 11:43:08;;;;;;;24.17;12.35;;;11.00;99.90;;;;;;5051393;28;20410;-72
2022/11/15 11:45:36;;;;;;;18.17;11.80;;;11.10;99.90;;;;;;5052758;28;20044;-72
2022/11/15 11:48:14;;;;;;;18.40;12.80;;;11.10;99.90;;;;;;5052882;28;20180;-73
2022/11/15 11:50:44;;;;;;;17.17;12.23;;;11.10;99.90;;;;;;5051578;28;20049;-73
2022/11/15 11:53:25;;;;;;;18.13;11.88;;;11.10;99.90;;;;;;5053278;28;20021;-72
2022/11/15 11:55:56;;;;;;;18.88;13.13;;;11.20;99.90;;;;;;5055311;28;20032;-69
2022/11/15 11:58:36;;;;;;;17.98;11.98;;;11.30;99.90;;;;;;5055419;28;20017;-68
2022/11/15 12:01:05;;;;;;;19.65;13.23;;;11.30;99.90;;;;;;5056518;28;20017;-73
2022/11/15 12:03:42;;;;;;;20.83;12.35;;;11.30;99.90;;;;;;5056632;28;20024;-68
2022/11/15 12:06:21;;;;;;;19.52;12.73;;;11.30;99.90;;;;;;5056461;28;20052;-69
2022/11/15 12:08:50;;;;;;;21.23;12.48;;;11.30;99.90;;;;;;5055196;28;20017;-68
2022/11/15 12:11:34;;;;;;;19.33;13.18;;;11.20;99.90;;;;;;5056343;28;20021;-72
2022/11/15 12:14:08;;;;;;;20.63;13.43;;;11.20;99.90;;;;;;5055039;28;20091;-68
2022/11/15 12:16:34;;;;;;;20.52;12.73;;;11.10;99.90;;;;;;5054891;28;20028;-68
2022/11/15 12:19:03;;;;;;;17.92;12.68;;;11.10;99.90;;;;;;5056226;28;20028;-68
2022/11/15 12:21:36;;;;;;;21.05;14.23;;;11.10;99.90;;;;;;5056145;28;20385;-68
2022/11/15 12:24:13;;;;;;;20.20;13.30;;;11.10;99.90;;;;;;5056172;28;20087;-68
2022/11/15 12:26:46;;;;;;;21.17;13.30;;;11.10;99.90;;;;;;5055985;28;20024;-68
2022/11/15 12:29:31;;;;;;;18.92;12.75;;;11.20;99.90;;;;;;5056026;28;20056;-72
2022/11/15 12:31:59;;;;;;;18.33;12.68;;;11.20;99.90;;;;;;5055952;28;20103;-73
2022/11/15 12:34:28;;;;;;;23.23;13.63;;;11.20;99.90;;;;;;5055787;28;20111;-69
2022/11/15 12:36:55;;;;;;;18.45;14.25;;;11.20;99.90;;;;;;5055914;28;20048;-72
2022/11/15 12:39:40;;;;;;;20.85;14.40;;;11.20;99.90;;;;;;5055699;28;20108;-73
2022/11/15 12:42:06;;;;;;;20.08;14.30;;;11.10;99.90;;;;;;5055541;28;20061;-73
2022/11/15 12:44:31;;;;;;;20.90;14.65;;;11.10;99.90;;;;;;5055654;28;20037;-68
2022/11/15 12:46:57;;;;;;;18.67;13.93;;;11.00;99.90;;;;;;5054357;28;20029;-73
2022/11/15 12:49:22;;;;;;;24.15;12.95;;;11.00;99.90;;;;;;5055594;28;20040;-73
2022/11/15 12:51:48;;;;;;;18.65;13.07;;;11.00;99.90;;;;;;5054393;28;20107;-69
2022/11/15 12:54:22;;;;;;;20.38;13.82;;;11.00;99.90;;;;;;5055536;28;20118;-68
2022/11/15 12:57:03;;;;;;;20.70;13.52;;;10.90;99.90;;;;;;5055402;28;20603;-68
2022/11/15 12:59:55;;;;;;;19.60;13.45;;;10.90;99.90;;;;;;5055349;28;20017;-72
2022/11/15 13:02:29;;;;;;;20.75;13.23;;;10.90;99.90;;;;;;5055304;28;20063;-73
2022/11/15 13:07:40;;;;;;;21.85;14.20;;;10.90;99.90;;;;;;5055502;28;20421;-73
2022/11/15 13:10:11;;;;;;;25.15;15.40;;;10.80;99.90;;;;;;5055142;28;20093;-68